sensor_id;sensor_type;location;lat;lon;timestamp;pressure;altitude;pressure_sealevel;temperature;humidity
71476;BME280;59286;59.274;17.974;2023-04-01T00:00:03;100491.06;;;-4.06;84.09
71476;BME280;59286;59.274;17.974;2023-04-01T00:02:29;100493.03;;;-4.08;84.17
71476;BME280;59286;59.274;17.974;2023-04-01T00:04:54;100484.56;;;-4.08;84.76
71476;BME280;59286;59.274;17.974;2023-04-01T00:07:20;100486.72;;;-4.05;84.34
71476;BME280;59286;59.274;17.974;2023-04-01T00:09:45;100486.72;;;-4.12;84.56
71476;BME280;59286;59.274;17.974;2023-04-01T00:12:10;100496.16;;;-4.06;84.56
71476;BME280;59286;59.274;17.974;2023-04-01T00:14:36;100478.88;;;-4.17;84.31
71476;BME280;59286;59.274;17.974;2023-04-01T00:17:02;100489.13;;;-4.17;84.46
71476;BME280;59286;59.274;17.974;2023-04-01T00:19:27;100496.78;;;-4.17;85.05
71476;BME280;59286;59.274;17.974;2023-04-01T00:21:53;100487.94;;;-4.21;85.16
71476;BME280;59286;59.274;17.974;2023-04-01T00:24:18;100484.41;;;-4.20;84.74
71476;BME280;59286;59.274;17.974;2023-04-01T00:26:44;100502.09;;;-4.12;84.98
71476;BME280;59286;59.274;17.974;2023-04-01T00:29:09;100502.50;;;-4.15;84.91
71476;BME280;59286;59.274;17.974;2023-04-01T00:31:35;100494.22;;;-4.17;84.36
71476;BME280;59286;59.274;17.974;2023-04-01T00:34:00;100494.44;;;-4.25;84.45
71476;BME280;59286;59.274;17.974;2023-04-01T00:36:26;100489.16;;;-4.30;85.25
71476;BME280;59286;59.274;17.974;2023-04-01T00:38:51;100499.97;;;-4.28;85.33
71476;BME280;59286;59.274;17.974;2023-04-01T00:41:18;100498.59;;;-4.30;85.37
71476;BME280;59286;59.274;17.974;2023-04-01T00:43:47;100506.84;;;-4.28;84.92
71476;BME280;59286;59.274;17.974;2023-04-01T00:46:13;100495.84;;;-4.35;85.65
71476;BME280;59286;59.274;17.974;2023-04-01T00:48:42;100494.28;;;-4.43;85.38
71476;BME280;59286;59.274;17.974;2023-04-01T00:51:13;100504.50;;;-4.36;85.89
71476;BME280;59286;59.274;17.974;2023-04-01T00:53:44;100501.38;;;-4.38;85.78
71476;BME280;59286;59.274;17.974;2023-04-01T00:56:14;100495.47;;;-4.39;86.10
71476;BME280;59286;59.274;17.974;2023-04-01T00:58:46;100504.31;;;-4.35;85.66
71476;BME280;59286;59.274;17.974;2023-04-01T01:01:13;100501.56;;;-4.33;85.99
71476;BME280;59286;59.274;17.974;2023-04-01T01:03:39;100504.91;;;-4.33;85.91
71476;BME280;59286;59.274;17.974;2023-04-01T01:06:48;100505.88;;;-4.34;86.18
71476;BME280;59286;59.274;17.974;2023-04-01T01:09:29;100502.13;;;-4.38;86.08
71476;BME280;59286;59.274;17.974;2023-04-01T01:12:06;100512.00;;;-4.35;85.96
71476;BME280;59286;59.274;17.974;2023-04-01T01:17:14;100506.88;;;-4.41;86.38
71476;BME280;59286;59.274;17.974;2023-04-01T01:27:34;100506.69;;;-4.53;85.74
71476;BME280;59286;59.274;17.974;2023-04-01T01:32:58;100516.50;;;-4.56;86.64
71476;BME280;59286;59.274;17.974;2023-04-01T01:35:48;100511.78;;;-4.53;86.89
71476;BME280;59286;59.274;17.974;2023-04-01T01:38:17;100512.59;;;-4.52;86.76
71476;BME280;59286;59.274;17.974;2023-04-01T01:40:46;100510.41;;;-4.49;87.27
71476;BME280;59286;59.274;17.974;2023-04-01T01:43:16;100522.81;;;-4.46;86.74
71476;BME280;59286;59.274;17.974;2023-04-01T01:45:47;100508.84;;;-4.50;86.66
71476;BME280;59286;59.274;17.974;2023-04-01T01:48:14;100513.75;;;-4.55;86.58
71476;BME280;59286;59.274;17.974;2023-04-01T01:50:42;100521.06;;;-4.52;86.36
71476;BME280;59286;59.274;17.974;2023-04-01T01:53:10;100523.97;;;-4.55;85.82
71476;BME280;59286;59.274;17.974;2023-04-01T01:55:41;100518.28;;;-4.63;86.92
71476;BME280;59286;59.274;17.974;2023-04-01T01:58:25;100517.13;;;-4.61;87.50
71476;BME280;59286;59.274;17.974;2023-04-01T02:00:57;100523.41;;;-4.57;86.84
71476;BME280;59286;59.274;17.974;2023-04-01T02:03:25;100521.66;;;-4.63;87.21
71476;BME280;59286;59.274;17.974;2023-04-01T02:05:53;100522.63;;;-4.64;87.02
71476;BME280;59286;59.274;17.974;2023-04-01T02:08:25;100528.91;;;-4.60;87.39
71476;BME280;59286;59.274;17.974;2023-04-01T02:11:05;100521.66;;;-4.63;87.95
71476;BME280;59286;59.274;17.974;2023-04-01T02:16:05;100527.53;;;-4.56;87.49
71476;BME280;59286;59.274;17.974;2023-04-01T02:18:33;100531.28;;;-4.52;88.33
71476;BME280;59286;59.274;17.974;2023-04-01T02:21:00;100524.19;;;-4.56;87.56
71476;BME280;59286;59.274;17.974;2023-04-01T02:23:27;100532.47;;;-4.48;87.95
71476;BME280;59286;59.274;17.974;2023-04-01T02:25:53;100525.56;;;-4.54;87.56
71476;BME280;59286;59.274;17.974;2023-04-01T02:28:20;100538.53;;;-4.49;88.14
71476;BME280;59286;59.274;17.974;2023-04-01T02:30:47;100532.84;;;-4.51;87.83
71476;BME280;59286;59.274;17.974;2023-04-01T02:33:13;100532.84;;;-4.51;88.18
71476;BME280;59286;59.274;17.974;2023-04-01T02:35:39;100522.22;;;-4.48;88.60
71476;BME280;59286;59.274;17.974;2023-04-01T02:38:05;100513.97;;;-4.50;88.55
71476;BME280;59286;59.274;17.974;2023-04-01T02:40:42;100528.31;;;-4.36;88.50
71476;BME280;59286;59.274;17.974;2023-04-01T02:43:07;100529.31;;;-4.37;88.43
71476;BME280;59286;59.274;17.974;2023-04-01T02:45:32;100525.75;;;-4.36;88.89
71476;BME280;59286;59.274;17.974;2023-04-01T02:47:58;100524.97;;;-4.30;88.74
71476;BME280;59286;59.274;17.974;2023-04-01T02:50:23;100519.47;;;-4.33;89.12
71476;BME280;59286;59.274;17.974;2023-04-01T02:52:48;100532.22;;;-4.27;88.73
71476;BME280;59286;59.274;17.974;2023-04-01T02:55:14;100528.91;;;-4.27;88.88
71476;BME280;59286;59.274;17.974;2023-04-01T02:57:39;100517.09;;;-4.35;88.86
71476;BME280;59286;59.274;17.974;2023-04-01T03:00:05;100525.94;;;-4.31;89.32
71476;BME280;59286;59.274;17.974;2023-04-01T03:02:36;100532.63;;;-4.30;88.68
71476;BME280;59286;59.274;17.974;2023-04-01T03:05:02;100529.50;;;-4.38;88.62
71476;BME280;59286;59.274;17.974;2023-04-01T03:07:27;100540.13;;;-4.35;88.64
71476;BME280;59286;59.274;17.974;2023-04-01T03:09:53;100528.31;;;-4.42;89.27
71476;BME280;59286;59.274;17.974;2023-04-01T03:12:18;100538.16;;;-4.39;89.07
71476;BME280;59286;59.274;17.974;2023-04-01T03:14:43;100537.94;;;-4.38;89.20
71476;BME280;59286;59.274;17.974;2023-04-01T03:17:09;100554.09;;;-4.37;88.85
71476;BME280;59286;59.274;17.974;2023-04-01T03:19:34;100550.75;;;-4.44;89.10
71476;BME280;59286;59.274;17.974;2023-04-01T03:21:59;100555.66;;;-4.43;89.49
71476;BME280;59286;59.274;17.974;2023-04-01T03:24:25;100561.56;;;-4.42;89.32
71476;BME280;59286;59.274;17.974;2023-04-01T03:26:50;100553.50;;;-4.46;89.81
71476;BME280;59286;59.274;17.974;2023-04-01T03:29:15;100548.78;;;-4.49;90.07
71476;BME280;59286;59.274;17.974;2023-04-01T03:31:41;100558.41;;;-4.44;90.10
71476;BME280;59286;59.274;17.974;2023-04-01T03:34:07;100555.28;;;-4.46;89.75
71476;BME280;59286;59.274;17.974;2023-04-01T03:36:32;100559.78;;;-4.42;90.27
71476;BME280;59286;59.274;17.974;2023-04-01T03:38:57;100562.94;;;-4.40;89.87
71476;BME280;59286;59.274;17.974;2023-04-01T03:41:23;100569.44;;;-4.37;89.96
71476;BME280;59286;59.274;17.974;2023-04-01T03:43:48;100554.06;;;-4.44;90.30
71476;BME280;59286;59.274;17.974;2023-04-01T03:46:18;100576.69;;;-4.34;90.09
71476;BME280;59286;59.274;17.974;2023-04-01T03:48:44;100575.72;;;-4.33;90.37
71476;BME280;59286;59.274;17.974;2023-04-01T03:51:09;100573.56;;;-4.43;90.06
71476;BME280;59286;59.274;17.974;2023-04-01T03:53:34;100571.81;;;-4.42;90.33
71476;BME280;59286;59.274;17.974;2023-04-01T03:56:06;100578.28;;;-4.33;90.61
71476;BME280;59286;59.274;17.974;2023-04-01T03:58:31;100582.41;;;-4.39;90.63
71476;BME280;59286;59.274;17.974;2023-04-01T04:00:57;100570.59;;;-4.40;90.23
71476;BME280;59286;59.274;17.974;2023-04-01T04:03:22;100575.13;;;-4.42;90.11
71476;BME280;59286;59.274;17.974;2023-04-01T04:05:49;100583.78;;;-4.43;90.24
71476;BME280;59286;59.274;17.974;2023-04-01T04:08:14;100585.19;;;-4.40;90.84
71476;BME280;59286;59.274;17.974;2023-04-01T04:10:40;100574.94;;;-4.47;90.83
71476;BME280;59286;59.274;17.974;2023-04-01T04:13:06;100591.66;;;-4.38;90.60
71476;BME280;59286;59.274;17.974;2023-04-01T04:15:31;100591.47;;;-4.43;90.65
71476;BME280;59286;59.274;17.974;2023-04-01T04:17:57;100596.78;;;-4.38;91.20
71476;BME280;59286;59.274;17.974;2023-04-01T04:20:22;100595.00;;;-4.37;90.61
71476;BME280;59286;59.274;17.974;2023-04-01T04:22:47;100602.88;;;-4.39;91.46
71476;BME280;59286;59.274;17.974;2023-04-01T04:25:12;100608.78;;;-4.32;90.80
71476;BME280;59286;59.274;17.974;2023-04-01T04:27:38;100600.72;;;-4.35;90.96
71476;BME280;59286;59.274;17.974;2023-04-01T04:30:05;100612.91;;;-4.31;90.91
71476;BME280;59286;59.274;17.974;2023-04-01T04:32:31;100621.75;;;-4.27;90.48
71476;BME280;59286;59.274;17.974;2023-04-01T04:34:56;100607.22;;;-4.33;90.33
71476;BME280;59286;59.274;17.974;2023-04-01T04:37:21;100623.34;;;-4.26;91.29
71476;BME280;59286;59.274;17.974;2023-04-01T04:39:47;100624.53;;;-4.22;90.67
71476;BME280;59286;59.274;17.974;2023-04-01T04:42:12;100623.94;;;-4.24;90.77
71476;BME280;59286;59.274;17.974;2023-04-01T04:44:38;100617.03;;;-4.23;91.25
71476;BME280;59286;59.274;17.974;2023-04-01T04:47:04;100614.66;;;-4.25;90.58
71476;BME280;59286;59.274;17.974;2023-04-01T04:49:31;100623.34;;;-4.13;90.54
71476;BME280;59286;59.274;17.974;2023-04-01T04:51:56;100632.38;;;-4.10;90.54
71476;BME280;59286;59.274;17.974;2023-04-01T04:54:21;100630.81;;;-4.05;90.85
71476;BME280;59286;59.274;17.974;2023-04-01T04:56:47;100625.31;;;-4.02;90.75
71476;BME280;59286;59.274;17.974;2023-04-01T04:59:12;100630.78;;;-3.92;90.88
71476;BME280;59286;59.274;17.974;2023-04-01T05:01:38;100640.63;;;-3.82;90.34
71476;BME280;59286;59.274;17.974;2023-04-01T05:04:03;100636.28;;;-3.81;90.06
71476;BME280;59286;59.274;17.974;2023-04-01T05:06:29;100644.94;;;-3.76;89.86
71476;BME280;59286;59.274;17.974;2023-04-01T05:08:55;100644.16;;;-3.70;89.74
71476;BME280;59286;59.274;17.974;2023-04-01T05:11:20;100649.25;;;-3.63;89.86
71476;BME280;59286;59.274;17.974;2023-04-01T05:13:46;100648.84;;;-3.54;89.72
71476;BME280;59286;59.274;17.974;2023-04-01T05:16:14;100657.28;;;-3.47;89.72
71476;BME280;59286;59.274;17.974;2023-04-01T05:18:40;100658.84;;;-3.39;88.83
71476;BME280;59286;59.274;17.974;2023-04-01T05:21:08;100666.91;;;-3.23;88.63
71476;BME280;59286;59.274;17.974;2023-04-01T05:23:33;100660.56;;;-3.20;88.02
71476;BME280;59286;59.274;17.974;2023-04-01T05:26:06;100662.09;;;-3.06;87.96
71476;BME280;59286;59.274;17.974;2023-04-01T05:28:32;100677.00;;;-2.83;86.93
71476;BME280;59286;59.274;17.974;2023-04-01T05:31:01;100676.31;;;-2.66;87.03
71476;BME280;59286;59.274;17.974;2023-04-01T05:33:27;100682.22;;;-2.34;86.13
71476;BME280;59286;59.274;17.974;2023-04-01T05:35:54;100674.97;;;-2.13;84.66
71476;BME280;59286;59.274;17.974;2023-04-01T05:38:19;100679.88;;;-1.86;83.77
71476;BME280;59286;59.274;17.974;2023-04-01T05:40:45;100681.72;;;-1.69;83.29
71476;BME280;59286;59.274;17.974;2023-04-01T05:43:11;100692.09;;;-1.39;82.41
71476;BME280;59286;59.274;17.974;2023-04-01T05:45:36;100692.81;;;-1.32;81.59
71476;BME280;59286;59.274;17.974;2023-04-01T05:48:02;100685.97;;;-1.20;81.35
71476;BME280;59286;59.274;17.974;2023-04-01T05:50:28;100679.66;;;-1.06;80.89
71476;BME280;59286;59.274;17.974;2023-04-01T05:52:54;100679.53;;;-1.11;80.78
71476;BME280;59286;59.274;17.974;2023-04-01T05:55:19;100695.03;;;-1.00;81.50
71476;BME280;59286;59.274;17.974;2023-04-01T05:57:46;100684.50;;;-0.98;81.01
71476;BME280;59286;59.274;17.974;2023-04-01T06:00:12;100692.00;;;-0.97;80.93
71476;BME280;59286;59.274;17.974;2023-04-01T06:02:37;100688.09;;;-0.99;81.50
71476;BME280;59286;59.274;17.974;2023-04-01T06:05:17;100685.38;;;-1.04;81.63
71476;BME280;59286;59.274;17.974;2023-04-01T06:07:42;100689.22;;;-0.95;81.72
71476;BME280;59286;59.274;17.974;2023-04-01T06:10:19;100687.50;;;-0.83;80.96
71476;BME280;59286;59.274;17.974;2023-04-01T06:13:00;100698.44;;;-0.58;80.33
71476;BME280;59286;59.274;17.974;2023-04-01T06:15:30;100701.50;;;-0.49;79.58
71476;BME280;59286;59.274;17.974;2023-04-01T06:32:55;100711.16;;;0.20;75.54
71476;BME280;59286;59.274;17.974;2023-04-01T06:40:57;100706.81;;;1.06;71.38
71476;BME280;59286;59.274;17.974;2023-04-01T06:43:41;100718.94;;;1.45;70.29
71476;BME280;59286;59.274;17.974;2023-04-01T06:49:01;100717.09;;;1.90;67.32
71476;BME280;59286;59.274;17.974;2023-04-01T06:51:44;100722.38;;;2.12;66.69
71476;BME280;59286;59.274;17.974;2023-04-01T06:54:21;100730.19;;;2.34;65.93
71476;BME280;59286;59.274;17.974;2023-04-01T06:56:54;100741.59;;;2.54;64.54
71476;BME280;59286;59.274;17.974;2023-04-01T06:59:25;100739.47;;;2.68;63.70
71476;BME280;59286;59.274;17.974;2023-04-01T07:02:16;100738.22;;;2.54;62.58
71476;BME280;59286;59.274;17.974;2023-04-01T07:04:46;100741.47;;;2.82;62.08
71476;BME280;59286;59.274;17.974;2023-04-01T07:07:21;100751.06;;;2.65;62.25
71476;BME280;59286;59.274;17.974;2023-04-01T07:09:52;100751.53;;;2.79;61.29
71476;BME280;59286;59.274;17.974;2023-04-01T07:14:56;100765.13;;;2.91;60.17
71476;BME280;59286;59.274;17.974;2023-04-01T07:17:25;100773.31;;;2.83;60.54
71476;BME280;59286;59.274;17.974;2023-04-01T07:19:57;100771.84;;;3.30;60.19
71476;BME280;59286;59.274;17.974;2023-04-01T07:22:40;100764.53;;;3.49;58.82
71476;BME280;59286;59.274;17.974;2023-04-01T07:25:26;100783.72;;;3.48;58.07
71476;BME280;59286;59.274;17.974;2023-04-01T07:28:05;100778.81;;;3.08;58.38
71476;BME280;59286;59.274;17.974;2023-04-01T07:33:33;100775.28;;;3.14;58.24
71476;BME280;59286;59.274;17.974;2023-04-01T07:36:07;100777.88;;;3.14;57.80
71476;BME280;59286;59.274;17.974;2023-04-01T07:38:46;100777.56;;;3.32;58.67
71476;BME280;59286;59.274;17.974;2023-04-01T07:41:42;100781.81;;;3.65;57.53
71476;BME280;59286;59.274;17.974;2023-04-01T07:49:32;100785.03;;;3.77;56.31
71476;BME280;59286;59.274;17.974;2023-04-01T07:52:24;100800.22;;;3.63;56.28
71476;BME280;59286;59.274;17.974;2023-04-01T07:57:37;100794.25;;;3.89;56.60
71476;BME280;59286;59.274;17.974;2023-04-01T08:00:39;100800.56;;;3.99;56.57
71476;BME280;59286;59.274;17.974;2023-04-01T08:05:28;100802.22;;;3.83;56.44
71476;BME280;59286;59.274;17.974;2023-04-01T08:08:34;100808.03;;;3.68;56.03
71476;BME280;59286;59.274;17.974;2023-04-01T08:11:21;100816.22;;;3.60;57.78
71476;BME280;59286;59.274;17.974;2023-04-01T08:17:01;100808.22;;;3.62;57.12
71476;BME280;59286;59.274;17.974;2023-04-01T08:22:28;100820.44;;;3.66;57.27
71476;BME280;59286;59.274;17.974;2023-04-01T08:24:58;100812.03;;;3.81;56.90
71476;BME280;59286;59.274;17.974;2023-04-01T08:30:25;100816.56;;;3.90;57.74
71476;BME280;59286;59.274;17.974;2023-04-01T08:33:01;100831.09;;;3.70;57.13
71476;BME280;59286;59.274;17.974;2023-04-01T08:35:42;100809.94;;;3.78;57.50
71476;BME280;59286;59.274;17.974;2023-04-01T08:38:19;100824.59;;;3.67;57.23
71476;BME280;59286;59.274;17.974;2023-04-01T08:40:59;100827.69;;;3.64;57.13
71476;BME280;59286;59.274;17.974;2023-04-01T08:43:54;100825.94;;;3.70;57.41
71476;BME280;59286;59.274;17.974;2023-04-01T08:46:32;100822.97;;;4.10;57.27
71476;BME280;59286;59.274;17.974;2023-04-01T08:52:01;100826.50;;;3.99;56.37
71476;BME280;59286;59.274;17.974;2023-04-01T08:54:56;100828.88;;;4.05;56.25
71476;BME280;59286;59.274;17.974;2023-04-01T08:57:45;100836.03;;;3.93;56.08
71476;BME280;59286;59.274;17.974;2023-04-01T09:00:43;100846.91;;;3.68;56.12
71476;BME280;59286;59.274;17.974;2023-04-01T09:06:11;100850.69;;;3.82;56.45
71476;BME280;59286;59.274;17.974;2023-04-01T09:11:39;100840.53;;;4.03;55.00
71476;BME280;59286;59.274;17.974;2023-04-01T09:31:28;100861.06;;;3.82;57.10
71476;BME280;59286;59.274;17.974;2023-04-01T09:45:47;100868.13;;;4.14;56.55
71476;BME280;59286;59.274;17.974;2023-04-01T09:48:00;100869.66;;;4.10;56.73
71476;BME280;59286;59.274;17.974;2023-04-01T09:50:32;100872.16;;;4.26;57.34
71476;BME280;59286;59.274;17.974;2023-04-01T09:56:19;100870.38;;;4.32;55.83
71476;BME280;59286;59.274;17.974;2023-04-01T09:59:01;100879.88;;;4.21;55.92
71476;BME280;59286;59.274;17.974;2023-04-01T10:15:27;100880.88;;;4.42;55.13
71476;BME280;59286;59.274;17.974;2023-04-01T10:30:05;100891.47;;;4.72;53.55
71476;BME280;59286;59.274;17.974;2023-04-01T10:52:43;100908.22;;;4.86;51.49
71476;BME280;59286;59.274;17.974;2023-04-01T10:55:48;100911.91;;;4.95;51.71
71476;BME280;59286;59.274;17.974;2023-04-01T11:06:29;100919.81;;;5.10;47.67
71476;BME280;59286;59.274;17.974;2023-04-01T11:12:23;100920.00;;;5.04;48.74
71476;BME280;59286;59.274;17.974;2023-04-01T11:15:09;100917.69;;;5.02;49.53
71476;BME280;59286;59.274;17.974;2023-04-01T11:27:00;100921.97;;;5.23;48.28
71476;BME280;59286;59.274;17.974;2023-04-01T11:32:33;100923.31;;;5.26;48.68
71476;BME280;59286;59.274;17.974;2023-04-01T11:35:08;100928.78;;;5.29;47.30
71476;BME280;59286;59.274;17.974;2023-04-01T11:43:25;100929.59;;;5.35;47.21
71476;BME280;59286;59.274;17.974;2023-04-01T11:54:33;100932.94;;;5.30;45.64
71476;BME280;59286;59.274;17.974;2023-04-01T12:02:29;100950.47;;;5.13;46.46
71476;BME280;59286;59.274;17.974;2023-04-01T12:10:51;100933.69;;;5.26;45.67
71476;BME280;59286;59.274;17.974;2023-04-01T12:13:39;100946.44;;;5.27;45.25
71476;BME280;59286;59.274;17.974;2023-04-01T12:19:48;100946.97;;;5.29;45.91
71476;BME280;59286;59.274;17.974;2023-04-01T12:22:57;100948.28;;;5.32;46.35
71476;BME280;59286;59.274;17.974;2023-04-01T12:28:36;100950.31;;;5.25;48.51
71476;BME280;59286;59.274;17.974;2023-04-01T12:33:48;100966.41;;;5.22;48.89
71476;BME280;59286;59.274;17.974;2023-04-01T12:52:50;100989.97;;;5.10;46.11
71476;BME280;59286;59.274;17.974;2023-04-01T12:55:42;100991.03;;;5.14;46.49
71476;BME280;59286;59.274;17.974;2023-04-01T13:09:55;100998.56;;;4.84;48.38
71476;BME280;59286;59.274;17.974;2023-04-01T13:20:58;101034.38;;;4.82;47.70
71476;BME280;59286;59.274;17.974;2023-04-01T13:28:29;101043.16;;;4.76;47.47
71476;BME280;59286;59.274;17.974;2023-04-01T13:31:02;101052.44;;;4.72;47.52
71476;BME280;59286;59.274;17.974;2023-04-01T13:39:14;101050.34;;;4.69;46.21
71476;BME280;59286;59.274;17.974;2023-04-01T13:44:45;101063.22;;;4.59;47.46
71476;BME280;59286;59.274;17.974;2023-04-01T13:47:47;101065.34;;;4.62;46.66
71476;BME280;59286;59.274;17.974;2023-04-01T14:01:08;101066.25;;;4.51;45.74
71476;BME280;59286;59.274;17.974;2023-04-01T14:04:08;101054.19;;;4.40;46.82
71476;BME280;59286;59.274;17.974;2023-04-01T14:12:36;101064.63;;;4.45;48.37
71476;BME280;59286;59.274;17.974;2023-04-01T14:15:25;101069.00;;;4.44;49.48
71476;BME280;59286;59.274;17.974;2023-04-01T14:20:39;101071.91;;;4.48;50.55
71476;BME280;59286;59.274;17.974;2023-04-01T14:23:41;101084.34;;;4.46;50.09
71476;BME280;59286;59.274;17.974;2023-04-01T14:31:38;101092.31;;;4.18;48.93
71476;BME280;59286;59.274;17.974;2023-04-01T14:37:23;101089.81;;;4.06;48.28
71476;BME280;59286;59.274;17.974;2023-04-01T14:40:20;101100.00;;;4.13;47.70
71476;BME280;59286;59.274;17.974;2023-04-01T14:43:09;101104.09;;;4.09;48.26
71476;BME280;59286;59.274;17.974;2023-04-01T14:48:37;101120.06;;;4.01;45.01
71476;BME280;59286;59.274;17.974;2023-04-01T14:53:58;101128.50;;;3.91;44.78
71476;BME280;59286;59.274;17.974;2023-04-01T14:56:36;101115.59;;;3.79;45.30
71476;BME280;59286;59.274;17.974;2023-04-01T14:59:09;101128.09;;;3.82;44.28
71476;BME280;59286;59.274;17.974;2023-04-01T15:01:46;101137.44;;;3.83;44.34
71476;BME280;59286;59.274;17.974;2023-04-01T15:10:33;101152.06;;;3.73;46.44
71476;BME280;59286;59.274;17.974;2023-04-01T15:24:52;101171.03;;;3.62;49.39
71476;BME280;59286;59.274;17.974;2023-04-01T15:38:05;101177.22;;;3.44;46.29
71476;BME280;59286;59.274;17.974;2023-04-01T15:40:49;101171.84;;;3.34;46.21
71476;BME280;59286;59.274;17.974;2023-04-01T15:43:41;101186.53;;;3.29;45.42
71476;BME280;59286;59.274;17.974;2023-04-01T15:51:49;101189.16;;;3.17;47.01
71476;BME280;59286;59.274;17.974;2023-04-01T16:00:13;101197.75;;;3.06;47.50
71476;BME280;59286;59.274;17.974;2023-04-01T16:02:53;101202.28;;;2.99;47.78
71476;BME280;59286;59.274;17.974;2023-04-01T16:05:32;101201.16;;;2.95;48.23
71476;BME280;59286;59.274;17.974;2023-04-01T16:10:44;101206.47;;;2.88;49.25
71476;BME280;59286;59.274;17.974;2023-04-01T16:13:28;101218.53;;;2.83;47.99
71476;BME280;59286;59.274;17.974;2023-04-01T16:19:13;101218.63;;;2.76;46.97
71476;BME280;59286;59.274;17.974;2023-04-01T16:21:50;101223.94;;;2.70;47.68
71476;BME280;59286;59.274;17.974;2023-04-01T16:24:40;101229.88;;;2.70;46.86
71476;BME280;59286;59.274;17.974;2023-04-01T16:27:23;101238.56;;;2.64;47.86
71476;BME280;59286;59.274;17.974;2023-04-01T16:29:53;101233.63;;;2.63;48.17
71476;BME280;59286;59.274;17.974;2023-04-01T16:32:44;101251.19;;;2.61;47.90
71476;BME280;59286;59.274;17.974;2023-04-01T16:39:08;101240.47;;;2.46;48.02
71476;BME280;59286;59.274;17.974;2023-04-01T16:41:25;101241.72;;;2.43;48.55
71476;BME280;59286;59.274;17.974;2023-04-01T16:44:10;101261.72;;;2.36;49.04
71476;BME280;59286;59.274;17.974;2023-04-01T16:46:41;101265.88;;;2.37;49.67
71476;BME280;59286;59.274;17.974;2023-04-01T16:51:52;101262.16;;;2.22;50.14
71476;BME280;59286;59.274;17.974;2023-04-01T16:54:36;101269.34;;;2.20;50.55
71476;BME280;59286;59.274;17.974;2023-04-01T16:57:17;101274.38;;;2.15;51.46
71476;BME280;59286;59.274;17.974;2023-04-01T17:02:38;101281.56;;;2.01;51.21
71476;BME280;59286;59.274;17.974;2023-04-01T17:05:12;101290.75;;;1.97;51.60
71476;BME280;59286;59.274;17.974;2023-04-01T17:08:17;101293.78;;;1.94;52.76
71476;BME280;59286;59.274;17.974;2023-04-01T17:10:56;101296.91;;;1.84;52.92
71476;BME280;59286;59.274;17.974;2023-04-01T17:16:28;101306.09;;;1.80;52.54
71476;BME280;59286;59.274;17.974;2023-04-01T17:25:13;101315.91;;;1.60;53.85
71476;BME280;59286;59.274;17.974;2023-04-01T17:32:57;101324.50;;;1.36;54.71
71476;BME280;59286;59.274;17.974;2023-04-01T17:35:34;101326.16;;;1.31;55.51
71476;BME280;59286;59.274;17.974;2023-04-01T17:43:56;101341.13;;;1.04;57.04
71476;BME280;59286;59.274;17.974;2023-04-01T17:51:38;101346.63;;;0.89;60.58
71476;BME280;59286;59.274;17.974;2023-04-01T17:54:25;101357.44;;;0.80;62.57
71476;BME280;59286;59.274;17.974;2023-04-01T18:05:26;101363.75;;;0.59;64.96
71476;BME280;59286;59.274;17.974;2023-04-01T18:13:26;101369.00;;;0.46;64.46
71476;BME280;59286;59.274;17.974;2023-04-01T18:19:03;101384.34;;;0.35;65.00
71476;BME280;59286;59.274;17.974;2023-04-01T18:21:43;101394.06;;;0.26;65.59
71476;BME280;59286;59.274;17.974;2023-04-01T18:26:39;101407.63;;;0.15;65.90
71476;BME280;59286;59.274;17.974;2023-04-01T18:29:24;101397.56;;;0.07;65.74
71476;BME280;59286;59.274;17.974;2023-04-01T18:32:23;101402.53;;;0.02;65.80
71476;BME280;59286;59.274;17.974;2023-04-01T18:34:57;101404.56;;;-0.07;66.01
71476;BME280;59286;59.274;17.974;2023-04-01T18:37:29;101409.13;;;-0.09;65.15
71476;BME280;59286;59.274;17.974;2023-04-01T18:40:29;101416.09;;;-0.16;65.48
71476;BME280;59286;59.274;17.974;2023-04-01T18:43:05;101417.09;;;-0.23;65.72
71476;BME280;59286;59.274;17.974;2023-04-01T18:45:41;101425.41;;;-0.21;65.11
71476;BME280;59286;59.274;17.974;2023-04-01T18:53:17;101433.19;;;-0.34;65.37
71476;BME280;59286;59.274;17.974;2023-04-01T18:55:53;101441.28;;;-0.31;64.88
71476;BME280;59286;59.274;17.974;2023-04-01T18:58:59;101442.69;;;-0.35;65.57
71476;BME280;59286;59.274;17.974;2023-04-01T19:01:27;101446.25;;;-0.42;65.35
71476;BME280;59286;59.274;17.974;2023-04-01T19:04:19;101454.78;;;-0.42;65.38
71476;BME280;59286;59.274;17.974;2023-04-01T19:06:53;101468.44;;;-0.48;65.34
71476;BME280;59286;59.274;17.974;2023-04-01T19:09:44;101467.25;;;-0.52;65.42
71476;BME280;59286;59.274;17.974;2023-04-01T19:12:18;101472.22;;;-0.57;65.63
71476;BME280;59286;59.274;17.974;2023-04-01T19:19:55;101488.06;;;-0.66;66.59
71476;BME280;59286;59.274;17.974;2023-04-01T19:22:53;101482.53;;;-0.70;66.96
71476;BME280;59286;59.274;17.974;2023-04-01T19:25:28;101486.69;;;-0.69;67.06
71476;BME280;59286;59.274;17.974;2023-04-01T19:30:54;101489.06;;;-0.74;67.84
71476;BME280;59286;59.274;17.974;2023-04-01T19:33:41;101493.22;;;-0.79;68.15
71476;BME280;59286;59.274;17.974;2023-04-01T19:36:24;101489.47;;;-0.90;68.38
71476;BME280;59286;59.274;17.974;2023-04-01T19:39:00;101504.50;;;-0.87;68.44
71476;BME280;59286;59.274;17.974;2023-04-01T19:44:49;101512.41;;;-0.88;68.89
71476;BME280;59286;59.274;17.974;2023-04-01T19:47:41;101517.38;;;-0.93;69.14
71476;BME280;59286;59.274;17.974;2023-04-01T19:50:34;101517.34;;;-1.00;68.81
71476;BME280;59286;59.274;17.974;2023-04-01T19:53:23;101515.53;;;-1.06;69.19
71476;BME280;59286;59.274;17.974;2023-04-01T19:56:19;101522.66;;;-1.08;69.46
71476;BME280;59286;59.274;17.974;2023-04-01T19:59:05;101518.72;;;-1.11;69.97
71476;BME280;59286;59.274;17.974;2023-04-01T20:04:08;101534.13;;;-1.17;70.17
71476;BME280;59286;59.274;17.974;2023-04-01T20:06:44;101534.91;;;-1.23;70.70
71476;BME280;59286;59.274;17.974;2023-04-01T20:14:50;101531.91;;;-1.33;71.58